createdAt,value
2022-11-10T00:02:25.093Z,22.81
2022-11-10T00:05:11.516Z,22.83
2022-11-10T00:07:56.656Z,22.09
2022-11-10T00:10:57.629Z,22.66
2022-11-10T00:14:01.585Z,22.73
2022-11-10T00:17:02.050Z,22.72
2022-11-10T00:19:47.187Z,21.98
2022-11-10T00:22:34.519Z,22.27
2022-11-10T00:25:19.581Z,22.65
2022-11-10T00:28:04.961Z,22.25
2022-11-10T00:30:50.433Z,22.06
2022-11-10T00:33:37.409Z,22.38
2022-11-10T00:36:22.998Z,22.26
2022-11-10T00:39:08.397Z,22.16
2022-11-10T00:41:54.253Z,22.06
2022-11-10T00:44:39.742Z,22.11
2022-11-10T00:47:25.008Z,21.85
2022-11-10T00:50:09.960Z,21.75
2022-11-10T00:52:56.081Z,21.34
2022-11-10T00:55:41.673Z,21.86
2022-11-10T00:58:27.381Z,21.71
2022-11-10T01:01:12.911Z,21.64
2022-11-10T01:03:58.233Z,21.65
2022-11-10T01:06:43.683Z,21.52
2022-11-10T01:09:29.330Z,21.23
2022-11-10T01:12:14.922Z,21.38
2022-11-10T01:15:00.286Z,21.66
2022-11-10T01:17:46.240Z,21.89
2022-11-10T01:20:33.447Z,21.33
2022-11-10T01:23:18.912Z,21.73
2022-11-10T01:26:06.290Z,21.81
2022-11-10T01:28:51.616Z,21.74
2022-11-10T01:31:37.211Z,21.37
2022-11-10T01:34:22.599Z,21.40
2022-11-10T01:37:07.556Z,21.08
2022-11-10T01:39:52.954Z,21.26
2022-11-10T01:42:53.373Z,20.91
2022-11-10T01:45:41.414Z,21.22
2022-11-10T01:48:32.839Z,22.08
2022-11-10T01:51:29.113Z,21.71
2022-11-10T01:54:20.740Z,20.85
2022-11-10T01:57:10.754Z,21.07
2022-11-10T01:59:56.206Z,20.85
2022-11-10T02:02:51.424Z,21.15
2022-11-10T02:05:37.341Z,21.27
2022-11-10T02:08:23.965Z,20.83
2022-11-10T02:11:09.099Z,20.68
2022-11-10T02:13:54.886Z,20.25
2022-11-10T02:16:40.065Z,20.31
2022-11-10T02:19:26.272Z,20.72
2022-11-10T02:22:11.332Z,21.06
2022-11-10T02:24:57.530Z,21.05
2022-11-10T02:27:42.871Z,21.31
2022-11-10T02:30:28.576Z,21.69
2022-11-10T02:33:13.976Z,21.20
2022-11-10T02:35:59.247Z,21.64
2022-11-10T02:38:44.959Z,21.65
2022-11-10T02:41:30.306Z,21.12
2022-11-10T02:44:15.550Z,20.42
2022-11-10T02:47:01.581Z,21.10
2022-11-10T02:49:47.057Z,21.43
2022-11-10T02:52:32.234Z,21.44
2022-11-10T02:55:17.687Z,21.33
2022-11-10T02:58:03.563Z,21.01
2022-11-10T03:00:48.677Z,20.98
2022-11-10T03:03:34.545Z,20.70
2022-11-10T03:06:19.885Z,20.91
2022-11-10T03:09:04.981Z,20.83
2022-11-10T03:11:50.105Z,20.60
2022-11-10T03:14:35.686Z,20.59
2022-11-10T03:17:21.047Z,21.00
2022-11-10T03:20:06.729Z,20.03
2022-11-10T03:22:51.729Z,20.41
2022-11-10T03:25:38.422Z,20.02
2022-11-10T03:28:23.964Z,20.60
2022-11-10T03:31:09.176Z,20.08
2022-11-10T03:33:54.257Z,20.74
2022-11-10T03:36:39.425Z,20.70
2022-11-10T03:39:24.725Z,20.33
2022-11-10T03:42:09.929Z,20.86
2022-11-10T03:44:55.511Z,20.61
2022-11-10T03:47:41.326Z,20.88
2022-11-10T03:50:26.563Z,20.84
2022-11-10T03:53:11.807Z,20.57
2022-11-10T03:56:01.301Z,20.47
2022-11-10T03:58:47.004Z,20.58
2022-11-10T04:01:32.339Z,20.72
2022-11-10T04:04:35.590Z,20.40
2022-11-10T04:07:39.500Z,20.81
2022-11-10T04:10:24.923Z,20.44
2022-11-10T04:13:29.189Z,20.65
2022-11-10T04:16:14.333Z,20.38
2022-11-10T04:19:00.909Z,20.03
2022-11-10T04:21:46.297Z,20.34
2022-11-10T04:24:31.848Z,20.41
2022-11-10T04:27:17.075Z,20.86
2022-11-10T04:30:03.771Z,20.68
2022-11-10T04:32:48.993Z,20.59
2022-11-10T04:35:34.220Z,20.72
2022-11-10T04:38:19.364Z,20.98
2022-11-10T04:41:05.593Z,21.26
2022-11-10T04:43:51.058Z,21.15
2022-11-10T04:46:38.729Z,20.71
2022-11-10T04:49:25.741Z,20.52
2022-11-10T04:52:10.707Z,20.65
2022-11-10T04:54:56.060Z,20.71
2022-11-10T04:57:42.811Z,20.35
2022-11-10T05:00:28.502Z,20.72
2022-11-10T05:03:13.984Z,20.99
2022-11-10T05:05:59.337Z,20.68
2022-11-10T05:08:46.044Z,20.29
2022-11-10T05:11:31.529Z,20.79
2022-11-10T05:14:17.281Z,20.83
2022-11-10T05:17:02.525Z,20.90
2022-11-10T05:19:48.198Z,20.35
2022-11-10T05:22:33.594Z,20.46
2022-11-10T05:25:19.224Z,20.80
2022-11-10T05:28:06.903Z,20.61
2022-11-10T05:30:52.349Z,20.95
2022-11-10T05:33:38.601Z,20.85
2022-11-10T05:36:23.886Z,20.44
2022-11-10T05:39:09.551Z,20.90
2022-11-10T05:41:54.926Z,20.67
2022-11-10T05:44:40.130Z,20.12
2022-11-10T05:47:25.404Z,20.39
2022-11-10T05:50:11.209Z,20.57
2022-11-10T05:52:56.624Z,20.22
2022-11-10T05:55:42.268Z,20.46
2022-11-10T05:58:27.446Z,20.32
2022-11-10T06:01:12.753Z,20.09
2022-11-10T06:03:57.844Z,20.67
2022-11-10T06:06:43.186Z,20.33
2022-11-10T06:09:28.343Z,20.76
2022-11-10T06:12:13.873Z,20.54
2022-11-10T06:14:58.877Z,19.94
2022-11-10T06:17:44.939Z,20.37
2022-11-10T06:20:30.217Z,20.45
2022-11-10T06:23:15.873Z,20.06
2022-11-10T06:26:01.198Z,20.61
2022-11-10T06:28:46.321Z,21.05
2022-11-10T06:31:31.799Z,21.23
2022-11-10T06:34:16.972Z,20.86
2022-11-10T06:37:02.745Z,21.12
2022-11-10T06:39:47.942Z,21.14
2022-11-10T06:42:33.338Z,21.18
2022-11-10T06:45:18.683Z,20.59
2022-11-10T06:48:07.455Z,20.71
2022-11-10T06:50:52.689Z,20.68
2022-11-10T06:53:38.383Z,20.24
2022-11-10T06:56:23.585Z,20.99
2022-11-10T06:59:09.657Z,21.32
2022-11-10T07:01:54.610Z,21.03
2022-11-10T07:04:39.630Z,21.51
2022-11-10T07:07:25.077Z,21.23
2022-11-10T07:10:10.407Z,19.87
2022-11-10T07:12:57.939Z,20.19
2022-11-10T07:15:43.470Z,20.52
2022-11-10T07:18:28.514Z,21.05
2022-11-10T07:21:14.037Z,21.07
2022-11-10T07:23:59.218Z,21.14
2022-11-10T07:26:44.478Z,21.26
2022-11-10T07:29:29.717Z,21.25
2022-11-10T07:32:15.069Z,21.32
2022-11-10T07:35:00.277Z,21.48
2022-11-10T07:37:45.419Z,21.96
2022-11-10T07:40:31.167Z,21.71
2022-11-10T07:43:16.830Z,20.98
2022-11-10T07:46:01.872Z,21.16
2022-11-10T07:48:47.506Z,21.67
2022-11-10T07:51:32.821Z,22.10
2022-11-10T07:54:18.067Z,22.13
2022-11-10T07:57:03.311Z,21.99
2022-11-10T07:59:51.676Z,21.79
2022-11-10T08:02:38.226Z,21.89
2022-11-10T08:05:23.489Z,21.38
2022-11-10T08:08:09.175Z,22.10
2022-11-10T08:10:54.150Z,21.84
2022-11-10T08:13:39.864Z,21.31
2022-11-10T08:16:25.221Z,21.14
2022-11-10T08:19:10.183Z,21.71
2022-11-10T08:21:55.993Z,21.95
2022-11-10T08:24:41.275Z,21.48
2022-11-10T08:27:26.725Z,21.17
2022-11-10T08:30:12.789Z,21.52
2022-11-10T08:33:00.205Z,21.56
2022-11-10T08:35:49.039Z,21.89
2022-11-10T08:38:34.170Z,21.87
2022-11-10T08:41:19.387Z,21.82
2022-11-10T08:44:09.337Z,21.76
2022-11-10T08:46:55.877Z,22.39
2022-11-10T08:49:41.460Z,22.66
2022-11-10T08:52:26.808Z,21.92
2022-11-10T08:55:11.992Z,22.24
2022-11-10T08:58:02.464Z,22.34
2022-11-10T09:00:48.051Z,22.28
2022-11-10T09:03:33.503Z,22.17
2022-11-10T09:06:18.410Z,22.21
2022-11-10T09:09:03.840Z,22.30
2022-11-10T09:11:49.004Z,22.64
2022-11-10T09:14:34.428Z,22.43
2022-11-10T09:17:19.958Z,22.54
2022-11-10T09:20:06.696Z,22.40
2022-11-10T09:22:52.570Z,22.38
2022-11-10T09:25:38.315Z,22.57
2022-11-10T09:28:23.898Z,22.77
2022-11-10T09:31:09.367Z,22.82
2022-11-10T09:33:54.565Z,23.15
2022-11-10T09:36:40.373Z,23.36
2022-11-10T09:39:25.884Z,22.73
2022-11-10T09:42:33.815Z,22.64
2022-11-10T09:45:40.562Z,23.51
2022-11-10T09:48:29.247Z,22.96
2022-11-10T09:51:27.614Z,23.40
2022-11-10T09:54:53.522Z,23.50
2022-11-10T09:57:38.934Z,24.19
2022-11-10T10:00:24.363Z,24.14
2022-11-10T10:03:17.633Z,24.65
2022-11-10T10:06:08.489Z,24.22
2022-11-10T10:09:15.581Z,25.32
2022-11-10T10:12:37.523Z,25.51
2022-11-10T10:16:11.120Z,25.82
2022-11-10T10:19:02.578Z,27.07
2022-11-10T10:22:17.375Z,26.41
2022-11-10T10:25:11.808Z,26.25
2022-11-10T10:28:13.494Z,26.82
2022-11-10T10:31:13.766Z,27.34
2022-11-10T10:33:59.540Z,27.07
2022-11-10T10:36:45.515Z,27.76
2022-11-10T10:39:42.311Z,26.96
2022-11-10T10:42:34.447Z,27.03
2022-11-10T10:45:19.560Z,26.78
2022-11-10T10:48:26.093Z,26.76
2022-11-10T10:51:28.102Z,27.57
2022-11-10T10:54:30.747Z,27.53
2022-11-10T10:57:26.031Z,27.68
2022-11-10T11:00:17.873Z,28.14
2022-11-10T11:03:13.853Z,28.57
2022-11-10T11:06:08.391Z,28.14
2022-11-10T11:08:59.772Z,26.95
2022-11-10T11:11:58.562Z,25.48
2022-11-10T11:14:46.195Z,25.43
2022-11-10T11:17:31.562Z,25.82
2022-11-10T11:20:16.907Z,25.70
2022-11-10T11:23:29.394Z,26.29
2022-11-10T11:26:21.718Z,26.31
2022-11-10T11:29:25.509Z,26.79
2022-11-10T11:32:32.619Z,26.44
2022-11-10T11:35:39.318Z,26.17
2022-11-10T11:38:34.341Z,26.88
2022-11-10T11:41:56.985Z,26.17
2022-11-10T11:45:19.679Z,26.46
2022-11-10T11:48:25.949Z,26.32
2022-11-10T11:51:22.571Z,25.97
2022-11-10T11:54:18.026Z,25.58
2022-11-10T11:57:24.334Z,26.16
2022-11-10T12:00:13.752Z,25.81
2022-11-10T12:03:50.026Z,26.79
2022-11-10T12:07:06.753Z,26.18
2022-11-10T12:10:22.891Z,25.97
2022-11-10T12:13:19.649Z,25.82
2022-11-10T12:16:26.692Z,25.17
2022-11-10T12:19:33.632Z,25.24
2022-11-10T12:22:40.265Z,26.12
2022-11-10T12:25:52.680Z,25.87
2022-11-10T12:28:48.052Z,25.67
2022-11-10T12:31:38.518Z,24.66
2022-11-10T12:34:44.059Z,25.37
2022-11-10T12:37:38.278Z,25.65
2022-11-10T12:40:42.158Z,25.10
2022-11-10T12:43:33.886Z,25.42
2022-11-10T12:46:19.168Z,25.65
2022-11-10T12:49:17.828Z,25.77
2022-11-10T12:52:11.985Z,25.77
2022-11-10T12:54:57.751Z,25.73
2022-11-10T12:57:43.910Z,25.83
2022-11-10T13:00:39.176Z,25.30
2022-11-10T13:03:36.917Z,25.53
2022-11-10T13:06:35.651Z,25.53
2022-11-10T13:09:27.757Z,25.21
2022-11-10T13:12:23.600Z,25.15
2022-11-10T13:15:44.875Z,25.57
2022-11-10T13:18:30.475Z,25.83
2022-11-10T13:21:15.849Z,24.75
2022-11-10T13:24:02.463Z,25.07
2022-11-10T13:26:55.805Z,24.58
2022-11-10T13:29:43.843Z,24.29
2022-11-10T13:32:31.373Z,25.24
2022-11-10T13:35:28.673Z,25.16
2022-11-10T13:38:32.404Z,24.67
2022-11-10T13:41:17.404Z,24.75
2022-11-10T13:44:03.042Z,25.14
2022-11-10T13:47:34.782Z,25.31
2022-11-10T13:50:28.720Z,25.17
2022-11-10T13:53:42.749Z,25.38
2022-11-10T13:57:05.873Z,24.58
2022-11-10T13:59:56.552Z,25.56
2022-11-10T14:02:56.538Z,24.95
2022-11-10T14:05:56.920Z,24.93
2022-11-10T14:08:47.250Z,25.40
2022-11-10T14:11:42.124Z,25.79
2022-11-10T14:15:15.138Z,25.30
2022-11-10T14:18:00.828Z,25.27
2022-11-10T14:20:47.065Z,25.69
2022-11-10T14:23:49.384Z,25.54
2022-11-10T14:26:52.453Z,24.59
2022-11-10T14:29:39.905Z,24.97
2022-11-10T14:32:26.080Z,25.37
2022-11-10T14:35:21.245Z,25.55
2022-11-10T14:38:20.347Z,25.62
2022-11-10T14:41:07.204Z,25.21
2022-11-10T14:44:06.872Z,25.52
2022-11-10T14:46:52.893Z,25.58
2022-11-10T14:49:37.977Z,25.42
2022-11-10T14:52:23.298Z,25.55
2022-11-10T14:55:21.657Z,25.93
2022-11-10T14:58:19.390Z,25.52
2022-11-10T15:01:06.887Z,24.82
2022-11-10T15:03:52.048Z,25.58
2022-11-10T15:06:41.866Z,24.81
2022-11-10T15:09:32.348Z,24.79
2022-11-10T15:12:17.345Z,24.70
2022-11-10T15:15:02.613Z,24.49
2022-11-10T15:17:50.561Z,24.53
2022-11-10T15:20:40.846Z,24.70
2022-11-10T15:23:34.024Z,25.00
2022-11-10T15:26:20.689Z,24.69
2022-11-10T15:29:06.004Z,24.40
2022-11-10T15:31:52.957Z,24.83
2022-11-10T15:34:44.843Z,24.59
2022-11-10T15:37:31.500Z,24.93
2022-11-10T15:40:29.542Z,24.64
2022-11-10T15:43:21.928Z,24.48
2022-11-10T15:46:19.991Z,24.55
2022-11-10T15:49:12.953Z,24.48
2022-11-10T15:52:01.708Z,24.14
2022-11-10T15:54:49.140Z,24.15
2022-11-10T15:57:34.451Z,23.97
2022-11-10T16:00:19.738Z,24.60
2022-11-10T16:03:05.205Z,24.39
2022-11-10T16:05:50.423Z,24.75
2022-11-10T16:08:35.607Z,24.99
2022-11-10T16:11:22.579Z,25.15
2022-11-10T16:14:16.708Z,25.11
2022-11-10T16:17:01.631Z,25.32
2022-11-10T16:19:47.366Z,24.87
2022-11-10T16:22:32.626Z,24.80
2022-11-10T16:25:25.087Z,24.93
2022-11-10T16:28:19.454Z,24.70
2022-11-10T16:31:08.516Z,24.64
2022-11-10T16:33:53.799Z,24.57
2022-11-10T16:36:41.493Z,24.31
2022-11-10T16:39:27.564Z,24.07
2022-11-10T16:42:13.325Z,23.48
2022-11-10T16:44:59.307Z,23.84
2022-11-10T16:47:46.464Z,23.98
2022-11-10T16:50:34.365Z,23.83
2022-11-10T16:53:26.042Z,23.71
2022-11-10T16:56:14.577Z,23.86
2022-11-10T16:59:00.347Z,24.00
2022-11-10T17:01:46.849Z,23.61
2022-11-10T17:04:32.447Z,23.80
2022-11-10T17:07:21.974Z,23.71
2022-11-10T17:10:13.397Z,23.79
2022-11-10T17:12:58.667Z,22.94
2022-11-10T17:15:45.628Z,23.65
2022-11-10T17:18:32.036Z,23.62
2022-11-10T17:21:20.006Z,23.23
2022-11-10T17:24:05.755Z,23.05
2022-11-10T17:26:50.998Z,23.45
2022-11-10T17:29:36.007Z,23.82
2022-11-10T17:32:27.816Z,24.07
2022-11-10T17:35:22.513Z,23.88
2022-11-10T17:38:11.293Z,22.94
2022-11-10T17:40:56.693Z,23.21
2022-11-10T17:43:45.613Z,23.56
2022-11-10T17:46:31.596Z,24.00
2022-11-10T17:49:16.745Z,23.88
2022-11-10T17:52:02.179Z,23.86
2022-11-10T17:54:47.683Z,23.59
2022-11-10T17:57:33.032Z,23.75
2022-11-10T18:00:19.490Z,23.47
2022-11-10T18:03:08.512Z,22.76
2022-11-10T18:05:54.347Z,23.35
2022-11-10T18:08:39.825Z,23.22
2022-11-10T18:11:25.238Z,23.09
2022-11-10T18:14:11.104Z,22.92
2022-11-10T18:16:56.485Z,23.35
2022-11-10T18:19:41.882Z,23.32
2022-11-10T18:22:26.889Z,23.79
2022-11-10T18:25:12.193Z,23.75
2022-11-10T18:27:57.858Z,23.35
2022-11-10T18:30:43.782Z,23.54
2022-11-10T18:33:29.410Z,23.19
2022-11-10T18:36:14.488Z,23.64
2022-11-10T18:39:00.227Z,23.50
2022-11-10T18:41:52.161Z,23.77
2022-11-10T18:44:38.550Z,23.14
2022-11-10T18:47:23.921Z,23.38
2022-11-10T18:50:09.274Z,23.73
2022-11-10T18:52:54.360Z,24.04
2022-11-10T18:55:43.039Z,23.44
2022-11-10T18:58:31.181Z,23.33
2022-11-10T19:01:16.808Z,23.25
2022-11-10T19:04:03.592Z,22.90
2022-11-10T19:06:49.010Z,23.10
2022-11-10T19:09:34.032Z,22.97
2022-11-10T19:12:25.387Z,22.89
2022-11-10T19:15:11.811Z,22.65
2022-11-10T19:17:57.349Z,22.65
2022-11-10T19:20:42.558Z,22.89
2022-11-10T19:23:27.596Z,23.27
2022-11-10T19:26:20.861Z,23.07
2022-11-10T19:29:08.531Z,22.84
2022-11-10T19:31:53.570Z,22.80
2022-11-10T19:34:38.674Z,22.65
2022-11-10T19:37:23.833Z,22.78
2022-11-10T19:40:09.647Z,22.63
2022-11-10T19:42:54.811Z,22.75
2022-11-10T19:45:41.111Z,22.66
2022-11-10T19:48:26.498Z,22.09
2022-11-10T19:51:14.269Z,22.30
2022-11-10T19:54:02.014Z,22.57
2022-11-10T19:56:47.088Z,22.16
2022-11-10T19:59:32.968Z,22.07
2022-11-10T20:02:18.739Z,22.17
2022-11-10T20:05:15.764Z,22.60
2022-11-10T20:08:13.396Z,22.29
2022-11-10T20:11:05.153Z,22.21
2022-11-10T20:13:54.927Z,22.51
2022-11-10T20:16:40.377Z,22.14
2022-11-10T20:19:26.153Z,22.21
2022-11-10T20:22:12.661Z,22.18
2022-11-10T20:24:58.092Z,22.15
2022-11-10T20:27:44.273Z,22.12
2022-11-10T20:30:30.104Z,22.19
2022-11-10T20:33:15.575Z,22.45
2022-11-10T20:36:14.755Z,22.18
2022-11-10T20:39:02.721Z,22.19
2022-11-10T20:41:50.591Z,22.56
2022-11-10T20:44:36.356Z,22.65
2022-11-10T20:47:21.909Z,22.87
2022-11-10T20:50:13.065Z,22.57
2022-11-10T20:52:59.770Z,21.51
2022-11-10T20:55:53.369Z,22.06
2022-11-10T20:58:39.866Z,22.43
2022-11-10T21:01:25.559Z,22.07
2022-11-10T21:04:12.789Z,21.16
2022-11-10T21:06:58.345Z,21.71
2022-11-10T21:09:43.350Z,21.74
2022-11-10T21:12:47.137Z,21.36
2022-11-10T21:15:32.449Z,22.04
2022-11-10T21:18:17.809Z,22.03
2022-11-10T21:21:04.800Z,22.25
2022-11-10T21:23:56.932Z,22.33
2022-11-10T21:26:42.502Z,22.45
2022-11-10T21:29:27.689Z,22.68
2022-11-10T21:32:12.874Z,22.81
2022-11-10T21:34:57.858Z,22.86
2022-11-10T21:37:44.635Z,22.69
2022-11-10T21:40:29.936Z,22.89
2022-11-10T21:43:15.454Z,22.87
2022-11-10T21:46:03.941Z,22.94
2022-11-10T21:48:50.206Z,22.76
2022-11-10T21:51:35.461Z,22.84
2022-11-10T21:54:20.802Z,22.60
2022-11-10T21:57:05.925Z,22.77
2022-11-10T21:59:51.268Z,22.84
2022-11-10T22:02:36.537Z,22.50
2022-11-10T22:05:21.523Z,22.18
2022-11-10T22:08:07.145Z,22.32
2022-11-10T22:11:10.753Z,21.92
2022-11-10T22:14:14.562Z,21.82
2022-11-10T22:17:18.817Z,22.07
2022-11-10T22:20:04.804Z,21.60
2022-11-10T22:22:50.232Z,21.54
2022-11-10T22:25:36.545Z,21.75
2022-11-10T22:28:21.556Z,22.13
2022-11-10T22:31:08.719Z,21.77
2022-11-10T22:33:53.922Z,21.35
2022-11-10T22:36:39.413Z,21.67
2022-11-10T22:39:44.840Z,21.52
2022-11-10T22:42:48.451Z,21.33
2022-11-10T22:45:33.706Z,21.12
2022-11-10T22:48:28.457Z,20.62
2022-11-10T22:51:13.666Z,20.94
2022-11-10T22:54:00.105Z,20.65
2022-11-10T22:56:47.256Z,20.61
2022-11-10T22:59:33.121Z,20.62
2022-11-10T23:02:18.438Z,20.47
2022-11-10T23:05:04.170Z,20.48
2022-11-10T23:07:49.260Z,20.84
2022-11-10T23:10:34.732Z,20.79
2022-11-10T23:13:20.489Z,20.90
2022-11-10T23:16:08.991Z,20.58
2022-11-10T23:18:56.066Z,20.41
2022-11-10T23:21:41.007Z,20.09
2022-11-10T23:24:26.418Z,20.55
2022-11-10T23:27:11.745Z,20.50
2022-11-10T23:29:56.793Z,20.62
2022-11-10T23:32:42.192Z,20.63
2022-11-10T23:35:27.608Z,21.00
2022-11-10T23:38:12.987Z,20.93
2022-11-10T23:40:59.184Z,20.66
2022-11-10T23:43:44.858Z,21.33
2022-11-10T23:46:29.677Z,20.56
2022-11-10T23:49:15.051Z,20.19
2022-11-10T23:52:00.812Z,20.83
2022-11-10T23:54:46.087Z,20.63
2022-11-10T23:57:31.705Z,20.91
